| time (UTC) | temp F | wind direction | speed knots | gust knots | rain 1hr in | rain 24hr in | rain mn in | humidity % | barometer mb |
| 20260906234504 | 81 | 360 | 6.1 | 18.2 | 0.00 | 0.00 | 0.00 | 21 | 1000.0 |
| 20260906233001 | 82 | 161 | 7.8 | 25.2 | 0.00 | 0.00 | 0.00 | 20 | 1000.4 |
| 20260906231603 | 81 | 360 | 12.2 | 22.6 | 0.00 | 0.00 | 0.00 | 19 | 1000.2 |
| 20260906230108 | 82 | 360 | 9.6 | 23.5 | 0.00 | 0.00 | 0.00 | 18 | 1000.4 |
| 20260906224602 | 82 | 360 | 13.0 | 22.6 | 0.00 | 0.00 | 0.00 | 18 | 1000.4 |
| 20260906223058 | 82 | 360 | 12.2 | 20.9 | 0.00 | 0.00 | 0.00 | 18 | 1000.6 |
| 20260906221555 | 83 | 360 | 9.6 | 25.2 | 0.00 | 0.00 | 0.00 | 18 | 1000.6 |
| 20260906220053 | 83 | 360 | 11.3 | 23.5 | 0.00 | 0.00 | 0.00 | 17 | 1000.8 |
| 20260906214552 | 84 | 360 | 13.9 | 25.2 | 0.00 | 0.00 | 0.00 | 17 | 1000.9 |
| 20260906213056 | 83 | 360 | 9.6 | 22.6 | 0.00 | 0.00 | 0.00 | 17 | 1001.1 |
| 20260906211549 | 83 | 360 | 12.2 | 21.7 | 0.00 | 0.00 | 0.00 | 17 | 1000.9 |
| 20260906210048 | 83 | 360 | 9.6 | 23.5 | 0.00 | 0.00 | 0.00 | 18 | 1001.3 |
| 20260906204544 | 83 | 360 | 7.8 | 22.6 | 0.00 | 0.00 | 0.00 | 19 | 1001.7 |
| 20260906203011 | 82 | 360 | 10.4 | 25.2 | 0.00 | 0.00 | 0.00 | 19 | 1002.1 |
| 20260906201519 | 82 | 360 | 9.6 | 29.5 | 0.00 | 0.00 | 0.00 | 20 | 1002.1 |
| 20260906200007 | 81 | 360 | 7.8 | 25.2 | 0.00 | 0.00 | 0.00 | 19 | 1002.2 |
| 20260906194505 | 81 | 360 | 15.6 | 21.7 | 0.00 | 0.00 | 0.00 | 20 | 1002.3 |
| 20260906193005 | 81 | 360 | 14.8 | 26.1 | 0.00 | 0.00 | 0.00 | 18 | 1002.2 |
| 20260906191502 | 81 | 360 | 13.0 | 22.6 | 0.00 | 0.00 | 0.00 | 20 | 1002.4 |
| 20260906190059 | 81 | 360 | 12.2 | 27.8 | 0.00 | 0.00 | 0.00 | 19 | 1002.8 |
| 20260906184554 | 80 | 360 | 14.8 | 20.9 | 0.00 | 0.00 | 0.00 | 20 | 1003.3 |
| 20260906183059 | 79 | 136 | 12.2 | 22.6 | 0.00 | 0.00 | 0.00 | 21 | 1003.5 |
| 20260906181551 | 79 | 155 | 12.2 | 19.1 | 0.00 | 0.00 | 0.00 | 23 | 1003.8 |
| 20260906180042 | 76 | 360 | 0.9 | 1.7 | 0.00 | 0.00 | 0.00 | 30 | 1004.0 |
| 20260906174536 | 72 | 46 | 0.0 | 1.7 | 0.00 | 0.00 | 0.00 | 39 | 1004.3 |
| 20260906173032 | 70 | 360 | 0.0 | 1.7 | 0.00 | 0.00 | 0.00 | 45 | 1004.8 |
| 20260906171528 | 68 | 360 | 0.0 | 1.7 | 0.00 | 0.00 | 0.00 | 46 | 1004.9 |
| 20260906170023 | 67 | 24 | 0.0 | 0.9 | 0.00 | 0.00 | 0.00 | 48 | 1005.2 |
| 20260906164523 | 66 | 360 | 0.0 | 0.9 | 0.00 | 0.00 | 0.00 | 49 | 1005.4 |
| 20260906163024 | 65 | 34 | 0.0 | 0.9 | 0.00 | 0.00 | 0.00 | 51 | 1005.8 |
| 20260906161513 | 63 | 70 | 0.0 | 0.9 | 0.00 | 0.00 | 0.00 | 53 | 1005.9 |
| 20260906160006 | 62 | 38 | 0.0 | 0.9 | 0.00 | 0.00 | 0.00 | 53 | 1006.0 |
| 20260906154504 | 62 | 41 | 0.0 | 0.9 | 0.00 | 0.00 | 0.00 | 52 | 1006.4 |
| 20260906153003 | 63 | 360 | 0.0 | 0.9 | 0.00 | 0.00 | 0.00 | 48 | 1006.5 |
| 20260906151601 | 62 | 89 | 0.0 | 0.0 | 0.00 | 0.00 | 0.00 | 47 | 1006.5 |
| 20260906150056 | 59 | 92 | 0.0 | 0.9 | 0.00 | 0.00 | 0.00 | 50 | 1006.5 |
| 20260906144558 | 57 | 90 | 0.0 | 0.9 | 0.00 | 0.00 | 0.00 | 53 | 1006.5 |
| 20260906143045 | 55 | 360 | 0.9 | 1.7 | 0.00 | 0.00 | 0.00 | 54 | 1006.5 |
| 20260906141542 | 54 | 360 | 0.0 | 1.7 | 0.00 | 0.00 | 0.00 | 57 | 1006.4 |
| 20260906140047 | 53 | 360 | 0.9 | 1.7 | 0.00 | 0.00 | 0.00 | 59 | 1006.2 |
| 20260906134540 | 52 | 360 | 0.0 | 0.9 | 0.00 | 0.00 | 0.00 | 59 | 1006.2 |
| 20260906133049 | 52 | 360 | 0.0 | 1.7 | 0.00 | 0.00 | 0.00 | 60 | 1006.2 |
| 20260906131538 | 52 | 360 | 0.0 | 1.7 | 0.00 | 0.00 | 0.00 | 60 | 1006.0 |
| 20260906130036 | 53 | 360 | 0.0 | 0.9 | 0.00 | 0.00 | 0.00 | 58 | 1006.0 |
| 20260906124531 | 54 | 360 | 0.0 | 0.9 | 0.00 | 0.00 | 0.00 | 57 | 1005.7 |
| 20260906123037 | 54 | 360 | 0.0 | 0.9 | 0.00 | 0.00 | 0.00 | 56 | 1005.6 |
| 20260906121537 | 55 | 360 | 0.0 | 0.9 | 0.00 | 0.00 | 0.00 | 58 | 1005.4 |
| 20260906120126 | 55 | 93 | 0.0 | 0.0 | 0.00 | 0.00 | 0.00 | 59 | 1005.6 |
| 20260906114604 | 55 | 95 | 0.0 | 0.9 | 0.00 | 0.00 | 0.00 | 61 | 1005.5 |
| 20260906113053 | 56 | 92 | 0.0 | 0.0 | 0.00 | 0.00 | 0.00 | 59 | 1005.4 |
| 20260906111614 | 57 | 94 | 0.0 | 0.9 | 0.00 | 0.00 | 0.00 | 57 | 1005.1 |
| 20260906110052 | 57 | 360 | 0.0 | 0.9 | 0.00 | 0.00 | 0.00 | 59 | 1005.0 |
| 20260906104550 | 59 | 84 | 0.0 | 1.7 | 0.00 | 0.00 | 0.00 | 57 | 1004.9 |
| 20260906103050 | 61 | 360 | 0.9 | 1.7 | 0.00 | 0.00 | 0.00 | 53 | 1004.8 |
| 20260906101547 | 64 | 360 | 0.0 | 4.3 | 0.00 | 0.00 | 0.00 | 49 | 1004.7 |
| 20260906100046 | 62 | 20 | 0.0 | 7.8 | 0.00 | 0.00 | 0.00 | 53 | 1004.5 |
| 20260906094546 | 62 | 360 | 9.6 | 16.5 | 0.00 | 0.00 | 0.00 | 53 | 1004.3 |
| 20260906093051 | 62 | 360 | 7.0 | 14.8 | 0.00 | 0.00 | 0.00 | 53 | 1004.3 |
| 20260906091543 | 63 | 360 | 10.4 | 18.2 | 0.00 | 0.00 | 0.00 | 51 | 1004.4 |
| 20260906090042 | 63 | 360 | 7.8 | 17.4 | 0.00 | 0.00 | 0.00 | 50 | 1004.4 |
| 20260906084545 | 64 | 360 | 11.3 | 18.2 | 0.00 | 0.00 | 0.00 | 47 | 1004.1 |
| 20260906083042 | 65 | 360 | 7.0 | 13.0 | 0.00 | 0.00 | 0.00 | 46 | 1004.0 |
| 20260906081549 | 65 | 360 | 5.2 | 11.3 | 0.00 | 0.00 | 0.00 | 46 | 1003.9 |
| 20260906080039 | 65 | 360 | 4.3 | 10.4 | 0.00 | 0.00 | 0.00 | 46 | 1003.7 |
| 20260906074538 | 64 | 201 | 0.9 | 10.4 | 0.00 | 0.00 | 0.00 | 40 | 1003.7 |
| 20260906073049 | 65 | 360 | 7.8 | 9.6 | 0.00 | 0.00 | 0.00 | 47 | 1003.5 |
| 20260906071535 | 66 | 360 | 6.1 | 9.6 | 0.00 | 0.00 | 0.00 | 47 | 1003.5 |
| 20260906070039 | 66 | 360 | 5.2 | 9.6 | 0.00 | 0.00 | 0.00 | 45 | 1003.5 |
| 20260906064534 | 66 | 360 | 3.5 | 11.3 | 0.00 | 0.00 | 0.00 | 43 | 1003.2 |
| 20260906063033 | 66 | 360 | 8.7 | 13.0 | 0.00 | 0.00 | 0.00 | 45 | 1003.3 |
| 20260906061530 | 67 | 360 | 5.2 | 10.4 | 0.00 | 0.00 | 0.00 | 39 | 1003.6 |
| 20260906060030 | 67 | 360 | 7.8 | 14.8 | 0.00 | 0.00 | 0.00 | 33 | 1003.5 |
| 20260906054528 | 66 | 161 | 5.2 | 10.4 | 0.00 | 0.00 | 0.00 | 34 | 1003.2 |
| 20260906053035 | 66 | 127 | 7.0 | 10.4 | 0.00 | 0.00 | 0.00 | 34 | 1003.3 |
| 20260906051524 | 67 | 360 | 7.0 | 9.6 | 0.00 | 0.00 | 0.00 | 34 | 1003.3 |
| 20260906050022 | 67 | 360 | 6.1 | 9.6 | 0.00 | 0.00 | 0.00 | 34 | 1003.4 |
| 20260906044521 | 67 | 360 | 5.2 | 7.0 | 0.00 | 0.00 | 0.00 | 35 | 1003.6 |
| 20260906043033 | 68 | 110 | 4.3 | 6.1 | 0.00 | 0.00 | 0.00 | 34 | 1003.9 |
| 20260906041549 | 68 | 108 | 3.5 | 6.1 | 0.00 | 0.00 | 0.00 | 33 | 1003.9 |
| 20260906040107 | 69 | 115 | 4.3 | 6.1 | 0.00 | 0.00 | 0.00 | 32 | 1004.0 |
| 20260906034546 | 71 | 124 | 2.6 | 5.2 | 0.00 | 0.00 | 0.00 | 29 | 1004.2 |
| 20260906033050 | 73 | 360 | 1.7 | 2.6 | 0.00 | 0.00 | 0.00 | 27 | 1004.2 |
| 20260906031545 | 75 | 360 | 1.7 | 3.5 | 0.00 | 0.00 | 0.00 | 26 | 1004.2 |
| 20260906030044 | 76 | 117 | 4.3 | 7.8 | 0.00 | 0.00 | 0.00 | 24 | 1004.3 |
| 20260906024514 | 76 | 360 | 2.6 | 7.0 | 0.00 | 0.00 | 0.00 | 24 | 1004.2 |
| 20260906023013 | 78 | 178 | 1.7 | 7.0 | 0.00 | 0.00 | 0.00 | 22 | 1004.0 |
| 20260906021510 | 78 | 360 | 2.6 | 9.6 | 0.00 | 0.00 | 0.00 | 22 | 1004.0 |
| 20260906020010 | 79 | 173 | 2.6 | 6.1 | 0.00 | 0.00 | 0.00 | 21 | 1004.0 |
| 20260906014510 | 81 | 360 | 3.5 | 13.0 | 0.00 | 0.00 | 0.00 | 20 | 1003.9 |
| 20260906013009 | 82 | 360 | 7.0 | 15.6 | 0.00 | 0.00 | 0.00 | 19 | 1004.0 |
| 20260906011506 | 82 | 360 | 7.8 | 14.8 | 0.00 | 0.00 | 0.00 | 19 | 1004.1 |
| 20260906010007 | 83 | 360 | 6.1 | 16.5 | 0.00 | 0.00 | 0.00 | 19 | 1004.1 |
| 20260906004505 | 83 | 360 | 4.3 | 17.4 | 0.00 | 0.00 | 0.00 | 18 | 1004.2 |
| 20260906003004 | 83 | 156 | 5.2 | 12.2 | 0.00 | 0.00 | 0.00 | 18 | 1004.1 |
| 20260906001502 | 83 | 360 | 13.0 | 25.2 | 0.00 | 0.00 | 0.00 | 18 | 1003.8 |
| 20260906000108 | 83 | 360 | 6.1 | 14.8 | 0.00 | 0.00 | 0.00 | 18 | 1004.0 |